Time;durP1;ratioP1;P1;durP2;ratioP2;P2;SDS_P1;SDS_P2;PMS_P1;PMS_P2;Temp;Humidity;BMP_temperature;BMP_pressure;BME280_temperature;BME280_humidity;BME280_pressure;Samples;Min_cycle;Max_cycle;Signal;HPM_P1;HPM_P2
2022/03/18 00:00:55;;;;;;;5.85;2.53;;;;;;;;;;5069886;28;20245;-79
2022/03/18 00:03:27;;;;;;;3.05;1.90;;;;;;;;;;5071266;28;20160;-79
2022/03/18 00:05:53;;;;;;;4.07;2.13;;;;;;;;;;5072138;28;20904;-79
2022/03/18 00:08:19;;;;;;;6.10;2.15;;;;;;;;;;5076848;28;20052;-79
2022/03/18 00:10:45;;;;;;;6.07;2.00;;;;;;;;;;5073687;28;20049;-79
2022/03/18 00:13:13;;;;;;;5.63;1.98;;;;;;;;;;5071061;28;20504;-79
2022/03/18 00:15:45;;;;;;;3.85;2.38;;;;;;;;;;5073365;28;20683;-80
2022/03/18 00:18:14;;;;;;;4.63;2.05;;;;;;;;;;5073351;28;20049;-79
2022/03/18 00:20:42;;;;;;;3.55;1.80;;;;;;;;;;5069125;28;20044;-79
2022/03/18 00:23:08;;;;;;;4.55;2.53;;;;;;;;;;5070303;28;20103;-79
2022/03/18 00:25:37;;;;;;;4.72;3.05;;;;;;;;;;5070779;28;20043;-79
2022/03/18 00:28:08;;;;;;;3.97;1.90;;;;;;;;;;5073642;28;20586;-79
2022/03/18 00:30:35;;;;;;;7.57;2.37;;;;;;;;;;5070170;28;20071;-79
2022/03/18 00:33:02;;;;;;;3.35;1.73;;;;;;;;;;5065003;28;20048;-79
2022/03/18 00:35:28;;;;;;;3.63;1.73;;;;;;;;;;5072086;28;20140;-78
2022/03/18 00:37:54;;;;;;;3.63;2.50;;;;;;;;;;5071583;28;20067;-79
2022/03/18 00:40:21;;;;;;;3.40;2.13;;;;;;;;;;5070293;28;20130;-79
2022/03/18 00:42:47;;;;;;;3.75;2.30;;;;;;;;;;5072609;28;20056;-79
2022/03/18 00:45:16;;;;;;;3.20;2.00;;;;;;;;;;5067278;28;20548;-79
2022/03/18 00:53:12;;;;;;;4.88;2.45;;;;;;;;;;5073532;28;20080;-79
2022/03/18 00:55:38;;;;;;;4.35;2.53;;;;;;;;;;5074061;28;20103;-78
2022/03/18 00:58:05;;;;;;;4.57;2.20;;;;;;;;;;5074781;28;20518;-78
2022/03/18 01:00:31;;;;;;;4.05;1.98;;;;;;;;;;5076798;28;20132;-79
2022/03/18 01:02:57;;;;;;;4.88;2.13;;;;;;;;;;5073946;28;20087;-78
2022/03/18 01:05:23;;;;;;;5.07;2.60;;;;;;;;;;5076697;28;20977;-79
2022/03/18 01:07:49;;;;;;;7.40;2.05;;;;;;;;;;5075485;28;20044;-79
2022/03/18 01:10:16;;;;;;;6.95;2.10;;;;;;;;;;5069359;28;20040;-79
2022/03/18 01:12:42;;;;;;;1.63;1.35;;;;;;;;;;5071903;28;20045;-78
2022/03/18 01:15:11;;;;;;;5.45;1.95;;;;;;;;;;5073837;28;20036;-78
2022/03/18 01:17:37;;;;;;;3.75;2.03;;;;;;;;;;5069610;28;20067;-78
2022/03/18 01:20:07;;;;;;;7.38;2.00;;;;;;;;;;5075171;28;20040;-78
2022/03/18 01:22:33;;;;;;;1.35;1.25;;;;;;;;;;5084818;27;20084;-78
2022/03/18 01:24:59;;;;;;;3.15;1.90;;;;;;;;;;5073602;28;20040;-78
2022/03/18 01:27:28;;;;;;;4.60;1.77;;;;;;;;;;5069584;28;20529;-78
2022/03/18 01:29:57;;;;;;;2.58;1.50;;;;;;;;;;5069489;28;20624;-78
2022/03/18 01:32:23;;;;;;;1.95;1.60;;;;;;;;;;5073521;28;20052;-79
2022/03/18 01:34:55;;;;;;;4.35;1.92;;;;;;;;;;5073743;28;20683;-79
2022/03/18 01:37:21;;;;;;;3.70;1.85;;;;;;;;;;5073533;28;20045;-79
2022/03/18 01:39:49;;;;;;;6.93;2.67;;;;;;;;;;5072332;28;20090;-79
2022/03/18 01:42:15;;;;;;;4.22;2.03;;;;;;;;;;5075479;28;20061;-79
2022/03/18 01:44:42;;;;;;;3.28;2.25;;;;;;;;;;5074135;28;20046;-78
2022/03/18 01:47:15;;;;;;;5.88;1.92;;;;;;;;;;5067701;28;20033;-78
2022/03/18 01:49:42;;;;;;;3.13;2.00;;;;;;;;;;5071084;28;20160;-78
2022/03/18 01:52:09;;;;;;;3.95;2.03;;;;;;;;;;5070494;28;20045;-79
2022/03/18 01:54:44;;;;;;;4.72;2.28;;;;;;;;;;5073068;28;20040;-78
2022/03/18 01:57:14;;;;;;;5.40;1.90;;;;;;;;;;5076269;28;20036;-79
2022/03/18 01:59:44;;;;;;;2.78;1.60;;;;;;;;;;5076707;28;20045;-80
2022/03/18 02:02:11;;;;;;;2.70;1.75;;;;;;;;;;5075360;28;20045;-79
2022/03/18 02:04:37;;;;;;;7.00;2.38;;;;;;;;;;5077731;28;20700;-80
2022/03/18 02:07:05;;;;;;;6.35;2.15;;;;;;;;;;5076977;28;20127;-79
2022/03/18 02:09:33;;;;;;;5.97;2.75;;;;;;;;;;5080162;28;20051;-78
2022/03/18 02:12:04;;;;;;;7.15;2.45;;;;;;;;;;5074868;28;20051;-79
2022/03/18 02:14:42;;;;;;;7.28;2.47;;;;;;;;;;5081831;28;20032;-78
2022/03/18 02:17:13;;;;;;;5.65;1.92;;;;;;;;;;5089921;28;20051;-79
2022/03/18 02:19:40;;;;;;;4.72;1.98;;;;;;;;;;5096133;28;20040;-79
2022/03/18 02:22:13;;;;;;;3.85;1.90;;;;;;;;;;5090017;28;20033;-79
2022/03/18 02:24:43;;;;;;;5.40;2.20;;;;;;;;;;5089674;28;20060;-78
2022/03/18 02:27:25;;;;;;;5.75;1.95;;;;;;;;;;5098752;28;20054;-79
2022/03/18 02:29:51;;;;;;;2.10;1.47;;;;;;;;;;5076208;28;20045;-79
2022/03/18 02:32:18;;;;;;;2.60;1.60;;;;;;;;;;5072930;28;20071;-80
2022/03/18 02:34:48;;;;;;;1.75;1.17;;;;;;;;;;5074230;28;20043;-78
2022/03/18 02:37:15;;;;;;;3.08;1.75;;;;;;;;;;5072832;28;20112;-79
2022/03/18 02:39:43;;;;;;;3.20;1.88;;;;;;;;;;5076959;28;20872;-80
2022/03/18 02:42:10;;;;;;;3.92;1.77;;;;;;;;;;5066708;28;20127;-79
2022/03/18 02:44:36;;;;;;;4.32;1.45;;;;;;;;;;5070216;28;20190;-79
2022/03/18 02:47:02;;;;;;;5.22;2.28;;;;;;;;;;5071990;28;20048;-79
2022/03/18 02:49:28;;;;;;;6.63;2.25;;;;;;;;;;5075713;28;20041;-78
2022/03/18 02:51:54;;;;;;;1.85;1.30;;;;;;;;;;5072308;28;20105;-79
2022/03/18 02:54:20;;;;;;;5.50;2.25;;;;;;;;;;5074265;28;20048;-78
2022/03/18 02:56:47;;;;;;;3.72;2.03;;;;;;;;;;5069578;28;20054;-78
2022/03/18 02:59:13;;;;;;;5.10;2.28;;;;;;;;;;5065926;28;20168;-79
2022/03/18 03:01:39;;;;;;;4.35;2.20;;;;;;;;;;5069275;28;20077;-79
2022/03/18 03:04:06;;;;;;;3.03;1.45;;;;;;;;;;5071430;28;20130;-79
2022/03/18 03:09:22;;;;;;;6.07;1.73;;;;;;;;;;5071759;28;20100;-78
2022/03/18 03:11:48;;;;;;;4.30;2.15;;;;;;;;;;5066695;28;20144;-78
2022/03/18 03:14:14;;;;;;;8.13;2.53;;;;;;;;;;5071250;28;20039;-79
2022/03/18 03:16:43;;;;;;;4.50;2.08;;;;;;;;;;5072081;28;20067;-79
2022/03/18 03:19:09;;;;;;;4.30;1.73;;;;;;;;;;5072613;28;20040;-79
2022/03/18 03:21:41;;;;;;;6.70;1.98;;;;;;;;;;5074278;28;20044;-79
2022/03/18 03:24:12;;;;;;;7.88;1.48;;;;;;;;;;5074685;28;20438;-79
2022/03/18 03:26:38;;;;;;;4.70;2.03;;;;;;;;;;5090395;27;20036;-79
2022/03/18 03:29:10;;;;;;;5.57;1.83;;;;;;;;;;5072665;28;20506;-79
2022/03/18 03:31:45;;;;;;;3.53;1.95;;;;;;;;;;5088816;27;20131;-79
2022/03/18 03:34:14;;;;;;;5.00;2.22;;;;;;;;;;5074000;27;20218;-79
2022/03/18 03:36:44;;;;;;;4.75;1.90;;;;;;;;;;5072138;27;20128;-79
2022/03/18 03:39:14;;;;;;;5.07;2.90;;;;;;;;;;5089370;27;20047;-79
2022/03/18 03:41:40;;;;;;;9.68;2.42;;;;;;;;;;5074126;27;20052;-79
2022/03/18 03:44:17;;;;;;;4.47;2.05;;;;;;;;;;5093687;27;20489;-79
2022/03/18 03:46:43;;;;;;;3.80;1.75;;;;;;;;;;5073688;27;20683;-79
2022/03/18 03:49:12;;;;;;;4.93;1.67;;;;;;;;;;5078163;27;20040;-79
2022/03/18 03:51:38;;;;;;;12.32;2.17;;;;;;;;;;5070313;27;20127;-78
2022/03/18 03:54:04;;;;;;;5.70;2.10;;;;;;;;;;5067712;27;20048;-79
2022/03/18 03:56:33;;;;;;;3.40;1.95;;;;;;;;;;5073216;27;20047;-79
2022/03/18 03:58:59;;;;;;;4.05;2.53;;;;;;;;;;5061837;27;20045;-78
2022/03/18 04:01:26;;;;;;;5.78;1.90;;;;;;;;;;5073581;27;20052;-79
2022/03/18 04:03:52;;;;;;;3.78;1.77;;;;;;;;;;5068905;27;20040;-79
2022/03/18 04:06:18;;;;;;;3.55;1.50;;;;;;;;;;5070618;27;20510;-79
2022/03/18 04:08:47;;;;;;;4.63;2.25;;;;;;;;;;5090333;27;20048;-79
2022/03/18 04:11:18;;;;;;;8.63;2.10;;;;;;;;;;5073981;27;20051;-79
2022/03/18 04:13:44;;;;;;;3.05;2.10;;;;;;;;;;5093664;27;20094;-79
2022/03/18 04:16:10;;;;;;;11.80;2.65;;;;;;;;;;5068245;27;20497;-79
2022/03/18 04:18:36;;;;;;;9.73;2.42;;;;;;;;;;5093646;27;20052;-79
2022/03/18 04:21:06;;;;;;;5.68;2.03;;;;;;;;;;5071961;27;20049;-79
2022/03/18 04:23:34;;;;;;;4.80;2.15;;;;;;;;;;5089308;27;20545;-79
2022/03/18 04:26:00;;;;;;;3.75;2.00;;;;;;;;;;5072350;27;20120;-79
2022/03/18 04:28:30;;;;;;;2.90;2.22;;;;;;;;;;5089755;27;20108;-79
2022/03/18 04:30:56;;;;;;;6.57;2.13;;;;;;;;;;5087181;27;20052;-78
2022/03/18 04:33:27;;;;;;;2.97;1.35;;;;;;;;;;5073525;27;21121;-79
2022/03/18 04:35:53;;;;;;;5.90;3.75;;;;;;;;;;5075199;27;20101;-78
2022/03/18 04:38:20;;;;;;;2.78;1.40;;;;;;;;;;5070721;27;20131;-78
2022/03/18 04:40:46;;;;;;;5.45;2.40;;;;;;;;;;5073334;27;20048;-80
2022/03/18 04:43:15;;;;;;;8.75;2.75;;;;;;;;;;5074169;27;20163;-78
2022/03/18 04:45:45;;;;;;;11.30;2.63;;;;;;;;;;5087505;27;20049;-78
2022/03/18 04:48:14;;;;;;;7.95;3.17;;;;;;;;;;5069947;27;20110;-79
2022/03/18 04:50:40;;;;;;;5.75;2.05;;;;;;;;;;5070716;27;20052;-78
2022/03/18 04:53:06;;;;;;;5.80;2.25;;;;;;;;;;5069890;27;20501;-79
2022/03/18 04:55:36;;;;;;;4.82;2.00;;;;;;;;;;5069589;27;20086;-78
2022/03/18 04:58:06;;;;;;;4.78;2.40;;;;;;;;;;5090811;27;20044;-79
2022/03/18 05:00:33;;;;;;;5.07;1.85;;;;;;;;;;5088356;27;20453;-78
2022/03/18 05:02:59;;;;;;;5.30;2.85;;;;;;;;;;5067796;27;20877;-78
2022/03/18 05:05:25;;;;;;;6.25;2.38;;;;;;;;;;5070453;27;20044;-78
2022/03/18 05:07:52;;;;;;;5.20;2.20;;;;;;;;;;5072674;27;20175;-78
2022/03/18 05:13:19;;;;;;;7.15;2.60;;;;;;;;;;5090399;27;20071;-78
2022/03/18 05:15:56;;;;;;;7.65;3.03;;;;;;;;;;5074436;28;20141;-78
2022/03/18 05:18:44;;;;;;;2.20;1.58;;;;;;;;;;5061905;28;20252;-78
2022/03/18 05:21:44;;;;;;;5.88;2.50;;;;;;;;;;5064880;28;20052;-79
2022/03/18 05:24:14;;;;;;;6.35;2.53;;;;;;;;;;5061203;28;20119;-78
2022/03/18 05:26:41;;;;;;;2.97;2.28;;;;;;;;;;5065379;28;20900;-78
2022/03/18 05:29:14;;;;;;;3.72;2.63;;;;;;;;;;5066785;28;20044;-78
2022/03/18 05:32:10;;;;;;;3.38;2.25;;;;;;;;;;5067187;28;20098;-79
2022/03/18 05:35:18;;;;;;;;;;;;;;;;;;;;;
2022/03/18 05:38:08;;;;;;;;;;;;;;;;;;;;;
2022/03/18 05:50:01;;;;;;;7.75;4.15;;;;;;;;;;5050099;28;20921;-79
2022/03/18 05:52:28;;;;;;;5.47;2.58;;;;;;;;;;5061637;28;20067;-78
2022/03/18 05:55:19;;;;;;;6.97;3.08;;;;;;;;;;5074851;28;20099;-78
2022/03/18 05:57:58;;;;;;;9.15;2.63;;;;;;;;;;5090340;28;20710;-79
2022/03/18 06:00:40;;;;;;;9.45;2.20;;;;;;;;;;5076332;28;20048;-78
2022/03/18 06:03:49;;;;;;;7.78;2.70;;;;;;;;;;5076765;28;20045;-78
2022/03/18 06:12:41;;;;;;;6.03;1.92;;;;;;;;;;5075214;28;20110;-79
2022/03/18 06:15:46;;;;;;;;;;;;;;;;;;;;;
2022/03/18 06:18:25;;;;;;;6.38;3.15;;;;;;;;;;5087941;28;43488;-79
2022/03/18 06:20:52;;;;;;;2.05;0.95;;;;;;;;;;5072815;27;20044;-79
2022/03/18 06:23:24;;;;;;;5.05;3.13;;;;;;;;;;5065684;28;20045;-79
2022/03/18 06:25:56;;;;;;;;;;;;;;;;;;5079579;27;20052;-79
2022/03/18 06:28:34;;;;;;;3.03;1.90;;;;;;;;;;5073725;27;20019;-79
2022/03/18 06:31:15;;;;;;;4.82;3.58;;;;;;;;;;5079936;27;20545;-79
2022/03/18 06:33:48;;;;;;;7.13;3.40;;;;;;;;;;5072242;28;20658;-78
2022/03/18 06:36:30;;;;;;;;;;;;;;;;;;;;;
2022/03/18 06:39:24;;;;;;;7.47;3.30;;;;;;;;;;5089641;27;42585;-79
2022/03/18 06:42:02;;;;;;;;;;;;;;;;;;;;;
2022/03/18 06:44:55;;;;;;;6.72;3.67;;;;;;;;;;5086537;27;41347;-79
2022/03/18 06:47:27;;;;;;;9.25;2.58;;;;;;;;;;5091315;27;20173;-79
2022/03/18 06:49:53;;;;;;;5.75;2.60;;;;;;;;;;5077060;27;20051;-79
2022/03/18 06:52:19;;;;;;;8.02;3.38;;;;;;;;;;5090184;27;20036;-78
2022/03/18 06:54:46;;;;;;;7.00;3.28;;;;;;;;;;5088798;27;20047;-79
2022/03/18 06:57:14;;;;;;;4.57;3.03;;;;;;;;;;5088828;27;20041;-78
2022/03/18 06:59:40;;;;;;;5.13;2.95;;;;;;;;;;5074974;27;20055;-80
2022/03/18 07:02:06;;;;;;;10.30;3.22;;;;;;;;;;5074500;28;20119;-79
2022/03/18 07:04:33;;;;;;;3.85;3.03;;;;;;;;;;5091164;27;20560;-78
2022/03/18 07:07:04;;;;;;;5.75;3.30;;;;;;;;;;5074326;27;20071;-81
2022/03/18 07:09:30;;;;;;;6.00;3.27;;;;;;;;;;5073668;27;20051;-76
2022/03/18 07:11:56;;;;;;;6.13;3.53;;;;;;;;;;5095276;27;20045;-76
2022/03/18 07:14:22;;;;;;;8.57;3.25;;;;;;;;;;5074142;27;20106;-75
2022/03/18 07:19:51;;;;;;;12.07;4.22;;;;;;;;;;5019107;28;20328;-78
2022/03/18 07:22:17;;;;;;;6.65;2.70;;;;;;;;;;5078356;27;20113;-79
2022/03/18 07:24:43;;;;;;;4.50;2.92;;;;;;;;;;5087516;27;20033;-76
2022/03/18 07:27:09;;;;;;;8.15;3.15;;;;;;;;;;5085813;27;20040;-77
2022/03/18 07:29:36;;;;;;;11.05;4.57;;;;;;;;;;5072162;28;20044;-78
2022/03/18 07:32:03;;;;;;;6.88;3.40;;;;;;;;;;5072997;27;20032;-76
2022/03/18 07:34:29;;;;;;;9.10;3.88;;;;;;;;;;5070873;28;20033;-78
2022/03/18 07:36:56;;;;;;;8.23;4.25;;;;;;;;;;5072734;28;20055;-77
2022/03/18 07:39:23;;;;;;;5.78;3.03;;;;;;;;;;5091867;27;20047;-78
2022/03/18 07:41:49;;;;;;;8.82;4.63;;;;;;;;;;5073007;27;20039;-76
2022/03/18 07:44:15;;;;;;;13.23;5.35;;;;;;;;;;5076613;28;20502;-77
2022/03/18 07:46:41;;;;;;;5.65;4.05;;;;;;;;;;5091117;27;20072;-77
2022/03/18 07:49:07;;;;;;;7.63;4.25;;;;;;;;;;5075534;27;20143;-77
2022/03/18 07:51:33;;;;;;;10.05;5.03;;;;;;;;;;5093361;27;20076;-78
2022/03/18 07:54:00;;;;;;;11.73;4.97;;;;;;;;;;5072444;27;20741;-79
2022/03/18 07:56:26;;;;;;;9.02;3.53;;;;;;;;;;5074727;27;20098;-80
2022/03/18 07:58:54;;;;;;;9.93;4.57;;;;;;;;;;5074008;27;20048;-80
2022/03/18 08:01:20;;;;;;;17.27;5.63;;;;;;;;;;5070256;27;20036;-77
2022/03/18 08:03:46;;;;;;;8.30;5.03;;;;;;;;;;5085638;27;20040;-77
2022/03/18 08:06:12;;;;;;;8.73;3.92;;;;;;;;;;5087311;27;20537;-77
2022/03/18 08:08:38;;;;;;;10.70;4.10;;;;;;;;;;5068981;27;20079;-77
2022/03/18 08:11:05;;;;;;;6.15;3.85;;;;;;;;;;5087273;27;20044;-77
2022/03/18 08:13:31;;;;;;;12.25;4.70;;;;;;;;;;5075440;27;20044;-77
2022/03/18 08:15:57;;;;;;;7.65;4.55;;;;;;;;;;5077405;27;20667;-77
2022/03/18 08:18:26;;;;;;;10.63;3.95;;;;;;;;;;5076524;27;20198;-78
2022/03/18 08:20:53;;;;;;;7.72;3.45;;;;;;;;;;5075032;27;20044;-77
2022/03/18 08:23:19;;;;;;;7.68;3.92;;;;;;;;;;5076802;28;20059;-77
2022/03/18 08:25:45;;;;;;;10.23;5.32;;;;;;;;;;5070750;27;20067;-77
2022/03/18 08:28:12;;;;;;;9.10;4.20;;;;;;;;;;5088536;27;20043;-77
2022/03/18 08:30:40;;;;;;;7.65;3.83;;;;;;;;;;5073399;28;20538;-77
2022/03/18 08:33:06;;;;;;;9.48;4.75;;;;;;;;;;5071569;28;20044;-77
2022/03/18 08:35:34;;;;;;;8.48;4.65;;;;;;;;;;5093247;27;20044;-77
2022/03/18 08:38:01;;;;;;;12.73;4.68;;;;;;;;;;5087254;27;20043;-77
2022/03/18 08:40:34;;;;;;;11.73;4.18;;;;;;;;;;5069366;28;20546;-77
2022/03/18 08:43:01;;;;;;;15.13;4.40;;;;;;;;;;5090527;27;20036;-78
2022/03/18 08:45:28;;;;;;;9.23;5.55;;;;;;;;;;5066582;28;20052;-77
2022/03/18 08:47:54;;;;;;;12.57;4.95;;;;;;;;;;5069886;28;20568;-77
2022/03/18 08:50:21;;;;;;;11.57;4.47;;;;;;;;;;5069289;28;20040;-76
2022/03/18 08:52:49;;;;;;;6.70;4.28;;;;;;;;;;5072332;28;20055;-77
2022/03/18 08:55:15;;;;;;;12.02;4.97;;;;;;;;;;5088303;27;20042;-77
2022/03/18 08:57:41;;;;;;;7.15;3.88;;;;;;;;;;5087233;27;20134;-77
2022/03/18 09:00:09;;;;;;;8.77;4.68;;;;;;;;;;5072103;28;20048;-77
2022/03/18 09:02:38;;;;;;;9.52;5.28;;;;;;;;;;5073217;27;20067;-77
2022/03/18 09:05:07;;;;;;;8.32;4.75;;;;;;;;;;5070720;28;20052;-77
2022/03/18 09:07:34;;;;;;;10.20;4.50;;;;;;;;;;5079062;28;20117;-77
2022/03/18 09:10:00;;;;;;;8.68;4.53;;;;;;;;;;5079639;28;20084;-77
2022/03/18 09:12:27;;;;;;;9.98;4.97;;;;;;;;;;5072164;28;20055;-76
2022/03/18 09:14:54;;;;;;;7.07;4.00;;;;;;;;;;5077723;28;20040;-77
2022/03/18 09:17:20;;;;;;;15.57;5.78;;;;;;;;;;5084789;28;20055;-76
2022/03/18 09:19:46;;;;;;;8.48;4.60;;;;;;;;;;5079885;28;20053;-77
2022/03/18 09:22:16;;;;;;;13.20;4.97;;;;;;;;;;5072301;28;20056;-77
2022/03/18 09:24:43;;;;;;;8.05;4.60;;;;;;;;;;5080680;28;20040;-77
2022/03/18 09:27:09;;;;;;;7.07;3.63;;;;;;;;;;5082170;28;20041;-77
2022/03/18 09:29:37;;;;;;;7.45;4.45;;;;;;;;;;5075740;28;20041;-77
2022/03/18 09:32:04;;;;;;;7.40;3.63;;;;;;;;;;5077149;28;20070;-77
2022/03/18 09:34:30;;;;;;;7.70;3.78;;;;;;;;;;5075924;28;20518;-77
2022/03/18 09:36:57;;;;;;;5.90;4.05;;;;;;;;;;5076565;28;20551;-77
2022/03/18 09:39:24;;;;;;;10.63;5.03;;;;;;;;;;5073236;28;20050;-78
2022/03/18 09:41:50;;;;;;;14.15;4.03;;;;;;;;;;5070604;28;20040;-77
2022/03/18 09:44:16;;;;;;;10.68;4.10;;;;;;;;;;5076404;28;20047;-76
2022/03/18 09:46:43;;;;;;;8.27;3.40;;;;;;;;;;5068179;28;20041;-75
2022/03/18 09:49:11;;;;;;;8.32;3.50;;;;;;;;;;5071251;28;20139;-75
2022/03/18 09:51:44;;;;;;;8.85;4.25;;;;;;;;;;5066232;28;20888;-76
2022/03/18 09:54:11;;;;;;;9.77;3.95;;;;;;;;;;5070308;28;20041;-80
2022/03/18 09:56:41;;;;;;;8.15;3.70;;;;;;;;;;5076765;28;20084;-73
2022/03/18 09:59:08;;;;;;;12.75;5.10;;;;;;;;;;5071749;28;20037;-79
2022/03/18 10:01:36;;;;;;;11.32;4.05;;;;;;;;;;5075312;28;20502;-78
2022/03/18 10:04:07;;;;;;;5.70;3.05;;;;;;;;;;5069567;28;20048;-78
2022/03/18 10:06:34;;;;;;;9.80;3.60;;;;;;;;;;5070526;28;20942;-78
2022/03/18 10:09:11;;;;;;;6.80;2.97;;;;;;;;;;5072309;28;20040;-78
2022/03/18 10:11:40;;;;;;;6.63;2.60;;;;;;;;;;5073689;28;20041;-78
2022/03/18 10:14:20;;;;;;;4.82;3.42;;;;;;;;;;5072312;28;20526;-78
2022/03/18 10:16:54;;;;;;;5.75;2.92;;;;;;;;;;5071444;27;20040;-78
2022/03/18 10:19:26;;;;;;;4.10;2.58;;;;;;;;;;5067600;28;20049;-79
2022/03/18 10:21:53;;;;;;;3.58;2.33;;;;;;;;;;5051116;28;20665;-79
2022/03/18 10:24:27;;;;;;;7.43;2.75;;;;;;;;;;5049001;28;20086;-78
2022/03/18 10:27:12;;;;;;;14.27;4.78;;;;;;;;;;5047272;28;20049;-77
2022/03/18 10:29:53;;;;;;;7.05;2.42;;;;;;;;;;5047030;28;20033;-78
2022/03/18 10:32:20;;;;;;;5.10;2.88;;;;;;;;;;5053145;28;20045;-78
2022/03/18 10:37:48;;;;;;;8.15;2.60;;;;;;;;;;5052315;28;20506;-78
2022/03/18 10:40:31;;;;;;;5.15;2.85;;;;;;;;;;5039835;28;20139;-78
2022/03/18 10:43:03;;;;;;;7.00;2.53;;;;;;;;;;5065267;28;20140;-78
2022/03/18 10:45:30;;;;;;;4.85;2.78;;;;;;;;;;5054139;28;20152;-78
2022/03/18 10:48:12;;;;;;;2.45;2.08;;;;;;;;;;5051156;28;20060;-78
2022/03/18 10:50:41;;;;;;;5.57;2.13;;;;;;;;;;5049948;28;20099;-78
2022/03/18 10:53:13;;;;;;;7.47;3.35;;;;;;;;;;5050628;28;20037;-78
2022/03/18 10:55:43;;;;;;;4.55;2.75;;;;;;;;;;5049979;28;20041;-78
2022/03/18 10:58:17;;;;;;;5.53;2.80;;;;;;;;;;5056371;28;20559;-78
2022/03/18 11:00:58;;;;;;;;;;;;;;;;;;;;;
2022/03/18 11:03:26;;;;;;;3.20;1.85;;;;;;;;;;5047113;28;40603;-78
2022/03/18 11:05:52;;;;;;;4.55;2.28;;;;;;;;;;5066043;28;20148;-77
2022/03/18 11:08:27;;;;;;;4.57;2.75;;;;;;;;;;5068607;28;20049;-78
2022/03/18 11:11:07;;;;;;;3.97;2.53;;;;;;;;;;5047723;28;20215;-79
2022/03/18 11:13:43;;;;;;;3.42;1.80;;;;;;;;;;5063962;28;20040;-78
2022/03/18 11:16:11;;;;;;;5.82;2.60;;;;;;;;;;5047046;28;20095;-78
2022/03/18 11:18:38;;;;;;;4.97;2.38;;;;;;;;;;5062649;28;20162;-78
2022/03/18 11:21:06;;;;;;;4.75;2.20;;;;;;;;;;5068080;28;20098;-78
2022/03/18 11:23:34;;;;;;;6.00;2.55;;;;;;;;;;5064535;28;20044;-81
2022/03/18 11:26:16;;;;;;;2.88;1.63;;;;;;;;;;5068146;28;20653;-81
2022/03/18 11:28:44;;;;;;;;;;;;;;;;;;5071763;28;20048;-81
2022/03/18 11:31:18;;;;;;;3.85;1.70;;;;;;;;;;5066919;28;19955;-81
2022/03/18 11:34:04;;;;;;;5.18;2.20;;;;;;;;;;5062570;28;20044;-81
2022/03/18 11:36:37;;;;;;;4.35;2.08;;;;;;;;;;5068678;28;20080;-79
2022/03/18 11:39:03;;;;;;;;;;;;;;;;;;5071205;28;20581;-80
2022/03/18 11:41:52;;;;;;;3.67;1.50;;;;;;;;;;5072215;28;19920;-79
2022/03/18 11:44:40;;;;;;;4.97;2.08;;;;;;;;;;5067933;28;20049;-80
2022/03/18 11:47:44;;;;;;;7.88;2.63;;;;;;;;;;5069256;28;20063;-79
2022/03/18 11:50:33;;;;;;;3.83;1.40;;;;;;;;;;5063653;28;20052;-76
2022/03/18 11:53:04;;;;;;;3.05;1.70;;;;;;;;;;5071523;28;20050;-75
2022/03/18 11:55:36;;;;;;;3.42;1.33;;;;;;;;;;5067116;28;20049;-76
2022/03/18 11:58:25;;;;;;;3.35;1.77;;;;;;;;;;5050506;28;20037;-76
2022/03/18 12:00:51;;;;;;;4.45;1.75;;;;;;;;;;5032732;28;20049;-76
2022/03/18 12:03:21;;;;;;;5.00;1.80;;;;;;;;;;5048659;28;20052;-75
2022/03/18 12:05:54;;;;;;;4.28;1.88;;;;;;;;;;5032500;28;20652;-77
2022/03/18 12:08:40;;;;;;;2.67;1.35;;;;;;;;;;5023572;28;20041;-75
2022/03/18 12:11:24;;;;;;;4.18;1.77;;;;;;;;;;5030525;28;20480;-76
2022/03/18 12:13:50;;;;;;;4.50;1.63;;;;;;;;;;5054402;28;20052;-76
2022/03/18 12:16:19;;;;;;;1.92;1.08;;;;;;;;;;5049672;28;21140;-76
2022/03/18 12:18:46;;;;;;;1.88;1.45;;;;;;;;;;5021537;28;20103;-77
2022/03/18 12:21:15;;;;;;;4.30;1.73;;;;;;;;;;5029010;28;20569;-82
2022/03/18 12:23:41;;;;;;;1.35;1.20;;;;;;;;;;5014906;28;20053;-79
2022/03/18 12:26:07;;;;;;;4.65;2.28;;;;;;;;;;5032064;28;20076;-78
2022/03/18 12:28:46;;;;;;;4.82;2.58;;;;;;;;;;5036536;28;20536;-77
2022/03/18 12:31:16;;;;;;;5.25;2.70;;;;;;;;;;5047044;28;20124;-78
2022/03/18 12:33:42;;;;;;;6.00;1.60;;;;;;;;;;5047196;28;20041;-77
2022/03/18 12:36:08;;;;;;;5.18;1.73;;;;;;;;;;5051920;28;20033;-81
2022/03/18 12:38:35;;;;;;;2.83;1.30;;;;;;;;;;5050118;28;20041;-76
2022/03/18 12:41:01;;;;;;;3.90;1.98;;;;;;;;;;5050088;28;20494;-79
2022/03/18 12:43:31;;;;;;;3.08;1.77;;;;;;;;;;5056386;28;20055;-79
2022/03/18 12:45:57;;;;;;;2.63;1.52;;;;;;;;;;5052649;28;20127;-79
2022/03/18 12:48:23;;;;;;;5.63;1.90;;;;;;;;;;5052013;28;20045;-79
2022/03/18 12:50:50;;;;;;;4.22;2.20;;;;;;;;;;5051192;28;20049;-79
2022/03/18 12:53:18;;;;;;;3.65;1.85;;;;;;;;;;5053418;28;20212;-79
2022/03/18 12:55:45;;;;;;;7.30;1.83;;;;;;;;;;5056758;28;20041;-79
2022/03/18 12:58:12;;;;;;;2.58;1.58;;;;;;;;;;5053664;28;20041;-79
2022/03/18 13:00:53;;;;;;;3.88;1.55;;;;;;;;;;5046966;28;20045;-79
2022/03/18 13:03:20;;;;;;;3.80;1.70;;;;;;;;;;5059318;28;20037;-79
2022/03/18 13:05:50;;;;;;;2.83;1.65;;;;;;;;;;5056316;28;20044;-78
2022/03/18 13:08:16;;;;;;;3.40;1.77;;;;;;;;;;5060359;28;20668;-79
2022/03/18 13:10:43;;;;;;;2.95;1.38;;;;;;;;;;5056641;28;20049;-79
2022/03/18 13:13:18;;;;;;;2.08;1.60;;;;;;;;;;5051355;28;20124;-79
2022/03/18 13:15:52;;;;;;;3.50;1.42;;;;;;;;;;5051381;28;20940;-78
2022/03/18 13:18:18;;;;;;;1.35;0.90;;;;;;;;;;5083539;27;20538;-80
2022/03/18 13:20:47;;;;;;;3.10;1.33;;;;;;;;;;5074875;28;20127;-79
2022/03/18 13:23:17;;;;;;;4.75;1.77;;;;;;;;;;5092968;27;20040;-79
2022/03/18 13:25:43;;;;;;;3.00;1.00;;;;;;;;;;5095069;27;20055;-79
2022/03/18 13:28:10;;;;;;;1.30;0.88;;;;;;;;;;5076387;28;20067;-79
2022/03/18 13:33:21;;;;;;;4.68;1.85;;;;;;;;;;5090595;27;20902;-83
2022/03/18 13:35:50;;;;;;;3.15;1.40;;;;;;;;;;5088667;27;20032;-81
2022/03/18 13:38:18;;;;;;;2.33;1.20;;;;;;;;;;5067463;28;20059;-79
2022/03/18 13:40:54;;;;;;;2.92;1.70;;;;;;;;;;5095903;27;20036;-78
2022/03/18 13:43:24;;;;;;;4.63;1.92;;;;;;;;;;5093255;27;20043;-80
2022/03/18 13:45:50;;;;;;;1.83;1.08;;;;;;;;;;5076336;28;20257;-79
2022/03/18 13:48:27;;;;;;;4.82;1.52;;;;;;;;;;5077115;27;20093;-77
2022/03/18 13:50:54;;;;;;;2.83;1.63;;;;;;;;;;5077040;28;20048;-80
2022/03/18 13:53:30;;;;;;;3.85;1.80;;;;;;;;;;5074851;28;20032;-79
2022/03/18 13:55:58;;;;;;;6.22;1.63;;;;;;;;;;5091612;27;20040;-79
2022/03/18 13:58:25;;;;;;;3.90;1.98;;;;;;;;;;5074929;27;20039;-78
2022/03/18 14:00:51;;;;;;;4.60;2.00;;;;;;;;;;5077608;28;20051;-79
2022/03/18 14:03:17;;;;;;;3.97;1.85;;;;;;;;;;5082758;28;20609;-79
2022/03/18 14:05:46;;;;;;;4.15;1.40;;;;;;;;;;5095324;27;20044;-79
2022/03/18 14:08:26;;;;;;;1.77;1.13;;;;;;;;;;5083359;27;20036;-78
2022/03/18 14:10:52;;;;;;;4.07;2.78;;;;;;;;;;5093634;27;20125;-79
2022/03/18 14:13:26;;;;;;;3.60;1.92;;;;;;;;;;5079895;28;20763;-79
2022/03/18 14:15:52;;;;;;;3.30;1.90;;;;;;;;;;5073466;28;20045;-79
2022/03/18 14:18:18;;;;;;;2.67;1.50;;;;;;;;;;5091883;27;20080;-79
2022/03/18 14:20:53;;;;;;;3.45;2.65;;;;;;;;;;5072446;28;20144;-79
2022/03/18 14:23:32;;;;;;;3.45;1.90;;;;;;;;;;5079080;28;20032;-79
2022/03/18 14:26:05;;;;;;;3.75;1.73;;;;;;;;;;5090722;27;20178;-78
2022/03/18 14:28:31;;;;;;;3.13;1.88;;;;;;;;;;5078080;27;20047;-79
2022/03/18 14:30:58;;;;;;;3.97;1.23;;;;;;;;;;5097337;27;20056;-79
2022/03/18 14:33:25;;;;;;;5.35;2.58;;;;;;;;;;5076785;27;20040;-78
2022/03/18 14:35:52;;;;;;;3.42;1.13;;;;;;;;;;5075236;28;20040;-78
2022/03/18 14:38:19;;;;;;;4.80;1.63;;;;;;;;;;5078115;28;20588;-78
2022/03/18 14:40:46;;;;;;;3.10;1.50;;;;;;;;;;5080348;27;20044;-79
2022/03/18 14:43:13;;;;;;;3.25;1.60;;;;;;;;;;5065429;28;20544;-79
2022/03/18 14:45:39;;;;;;;4.47;2.20;;;;;;;;;;5077657;28;20066;-79
2022/03/18 14:48:07;;;;;;;3.63;1.17;;;;;;;;;;5075752;27;20044;-78
2022/03/18 14:50:38;;;;;;;2.88;1.13;;;;;;;;;;5073863;27;20576;-79
2022/03/18 14:53:11;;;;;;;2.05;0.88;;;;;;;;;;5088569;27;20574;-78
2022/03/18 14:58:23;;;;;;;3.10;1.80;;;;;;;;;;5090819;27;20052;-78
2022/03/18 15:00:50;;;;;;;2.67;1.30;;;;;;;;;;5075803;28;20052;-79
2022/03/18 15:03:16;;;;;;;2.80;1.52;;;;;;;;;;5073579;28;20048;-78
2022/03/18 15:05:44;;;;;;;3.53;1.92;;;;;;;;;;5095785;27;20048;-78
2022/03/18 15:08:10;;;;;;;2.83;1.33;;;;;;;;;;5077684;27;20569;-78
2022/03/18 15:10:36;;;;;;;3.53;1.95;;;;;;;;;;5083815;28;20031;-78
2022/03/18 15:13:07;;;;;;;2.40;1.40;;;;;;;;;;5107115;27;21038;-79
2022/03/18 15:15:33;;;;;;;3.88;2.42;;;;;;;;;;5089888;27;20041;-80
2022/03/18 15:17:59;;;;;;;3.85;2.17;;;;;;;;;;5109830;27;20078;-78
2022/03/18 15:20:26;;;;;;;3.85;1.90;;;;;;;;;;5096587;27;20081;-79
2022/03/18 15:22:52;;;;;;;3.10;2.28;;;;;;;;;;5094989;27;20044;-78
2022/03/18 15:25:18;;;;;;;4.13;2.20;;;;;;;;;;5090170;28;20044;-79
2022/03/18 15:27:47;;;;;;;5.32;1.85;;;;;;;;;;5078924;27;20101;-79
2022/03/18 15:30:13;;;;;;;4.28;1.50;;;;;;;;;;5075250;28;20055;-79
2022/03/18 15:32:42;;;;;;;5.43;2.08;;;;;;;;;;5077395;27;20031;-78
2022/03/18 15:35:08;;;;;;;2.50;1.75;;;;;;;;;;5078433;28;20584;-79
2022/03/18 15:37:35;;;;;;;2.83;2.00;;;;;;;;;;5077541;27;20507;-80
2022/03/18 15:40:16;;;;;;;4.80;2.10;;;;;;;;;;5097352;27;20940;-79
2022/03/18 15:42:43;;;;;;;2.60;1.70;;;;;;;;;;5076202;28;20163;-79